Terminal Aerodrome Forecast
Issued by NWS

Home | Current Version | Previous Version | Text Only | Print | Product List | Glossary On
Versions: 1 2 3 4 5 6 7 8 9 10 11 12 13 14 15 16 17 18 19 20
283
FTUS43 KGRR 032340
TAFMKG
TAF
KMKG 032340Z 0400/0424 28006KT P6SM -SN OVC025
     FM040700 VRB03KT P6SM BKN035
     FM041600 15007KT 2SM -SN OVC025
     FM041700 15008KT 1 1/2SM -SN OVC015
     FM042000 15006KT 3/4SM -SN OVC009=

USA.gov is the U.S. government's official web portal to all federal, state and local government web resources and services.